createdAt,value
2018-04-27T00:00:44.214Z,985.65
2018-04-27T00:01:44.402Z,985.62
2018-04-27T00:02:44.612Z,985.62
2018-04-27T00:03:44.823Z,985.64
2018-04-27T00:04:45.001Z,985.64
2018-04-27T00:05:45.196Z,985.63
2018-04-27T00:06:45.395Z,985.67
2018-04-27T00:07:45.597Z,985.67
2018-04-27T00:08:45.831Z,985.63
2018-04-27T00:09:46.014Z,985.63
2018-04-27T00:10:46.199Z,985.64
2018-04-27T00:11:46.371Z,985.62
2018-04-27T00:12:46.573Z,985.64
2018-04-27T00:13:46.774Z,985.65
2018-04-27T00:14:46.972Z,985.59
2018-04-27T00:15:47.162Z,985.63
2018-04-27T00:16:47.359Z,985.59
2018-04-27T00:17:47.567Z,985.60
2018-04-27T00:18:47.769Z,985.59
2018-04-27T00:19:47.966Z,985.62
2018-04-27T00:20:48.151Z,985.58
2018-04-27T00:21:48.336Z,985.59
2018-04-27T00:22:48.527Z,985.58
2018-04-27T00:23:48.730Z,985.57
2018-04-27T00:24:48.927Z,985.60
2018-04-27T00:25:49.112Z,985.59
2018-04-27T00:26:49.286Z,985.61
2018-04-27T00:27:49.466Z,985.58
2018-04-27T00:28:49.674Z,985.63
2018-04-27T00:29:49.880Z,985.60
2018-04-27T00:30:50.065Z,985.63
2018-04-27T00:31:50.247Z,985.66
2018-04-27T00:32:50.423Z,985.66
2018-04-27T00:33:50.609Z,985.66
2018-04-27T00:34:50.797Z,985.65
2018-04-27T00:35:50.997Z,985.62
2018-04-27T00:36:51.195Z,985.67
2018-04-27T00:37:51.381Z,985.62
2018-04-27T00:38:51.624Z,985.62
2018-04-27T00:39:51.808Z,985.57
2018-04-27T00:40:51.996Z,985.56
2018-04-27T00:41:52.186Z,985.49
2018-04-27T00:44:24.021Z,985.42
2018-04-27T00:45:24.186Z,985.40
2018-04-27T00:46:24.385Z,985.39
2018-04-27T00:48:57.718Z,985.38
2018-04-27T00:49:56.392Z,985.37
2018-04-27T00:50:56.571Z,985.38
2018-04-27T00:51:56.771Z,985.36
2018-04-27T00:52:56.966Z,985.36
2018-04-27T00:53:57.160Z,985.36
2018-04-27T00:54:57.339Z,985.34
2018-04-27T00:55:57.528Z,985.34
2018-04-27T00:56:57.732Z,985.38
2018-04-27T00:57:57.985Z,985.40
2018-04-27T00:58:58.088Z,985.37
2018-04-27T00:59:58.280Z,985.36
2018-04-27T01:00:58.481Z,985.42
2018-04-27T01:01:58.692Z,985.39
2018-04-27T01:02:58.896Z,985.40
2018-04-27T01:03:59.074Z,985.37
2018-04-27T01:04:59.273Z,985.39
2018-04-27T01:05:59.450Z,985.34
2018-04-27T01:06:59.629Z,985.33
2018-04-27T01:07:59.811Z,985.34
2018-04-27T01:09:00.016Z,985.30
2018-04-27T01:10:00.202Z,985.28
2018-04-27T01:11:00.409Z,985.30
2018-04-27T01:12:00.587Z,985.29
2018-04-27T01:13:00.765Z,985.30
2018-04-27T01:14:00.952Z,985.28
2018-04-27T01:15:01.165Z,985.24
2018-04-27T01:16:01.343Z,985.23
2018-04-27T01:17:01.521Z,985.21
2018-04-27T01:18:01.724Z,985.20
2018-04-27T01:19:01.907Z,985.20
2018-04-27T01:20:02.082Z,985.20
2018-04-27T01:21:02.266Z,985.16
2018-04-27T01:22:02.455Z,985.19
2018-04-27T01:23:02.719Z,985.22
2018-04-27T01:24:02.842Z,985.18
2018-04-27T01:25:03.040Z,985.17
2018-04-27T01:26:03.234Z,985.15
2018-04-27T01:27:03.422Z,985.15
2018-04-27T01:28:03.612Z,985.17
2018-04-27T01:29:03.799Z,985.17
2018-04-27T01:30:04.005Z,985.20
2018-04-27T01:31:04.197Z,985.14
2018-04-27T01:32:04.381Z,985.19
2018-04-27T01:33:04.572Z,985.18
2018-04-27T01:34:04.766Z,985.17
2018-04-27T01:35:04.963Z,985.19
2018-04-27T01:36:05.165Z,985.23
2018-04-27T01:37:05.359Z,985.15
2018-04-27T01:38:05.543Z,985.23
2018-04-27T01:39:05.744Z,985.22
2018-04-27T01:40:05.936Z,985.22
2018-04-27T01:41:06.117Z,985.24
2018-04-27T01:42:06.322Z,985.25
2018-04-27T01:44:38.417Z,985.29
2018-04-27T01:45:38.584Z,985.31
2018-04-27T01:46:38.769Z,985.29
2018-04-27T01:47:38.971Z,985.31
2018-04-27T01:48:39.177Z,985.31
2018-04-27T01:49:39.368Z,985.31
2018-04-27T01:50:39.554Z,985.30
2018-04-27T01:51:39.742Z,985.38
2018-04-27T01:52:39.941Z,985.36
2018-04-27T01:53:40.137Z,985.35
2018-04-27T01:54:40.326Z,985.44
2018-04-27T01:55:40.524Z,985.45
2018-04-27T01:56:40.713Z,985.40
2018-04-27T01:57:40.895Z,985.37
2018-04-27T01:58:41.094Z,985.34
2018-04-27T01:59:41.279Z,985.29
2018-04-27T02:02:13.423Z,985.28
2018-04-27T02:03:13.591Z,985.25
2018-04-27T02:04:13.768Z,985.25
2018-04-27T02:05:13.953Z,985.24
2018-04-27T02:06:14.161Z,985.18
2018-04-27T02:07:14.366Z,985.21
2018-04-27T02:08:14.564Z,985.20
2018-04-27T02:10:46.673Z,985.21
2018-04-27T02:11:46.841Z,985.22
2018-04-27T02:12:47.046Z,985.21
2018-04-27T02:13:47.229Z,985.21
2018-04-27T02:14:47.446Z,985.15
2018-04-27T02:15:47.655Z,985.14
2018-04-27T02:16:47.836Z,985.13
2018-04-27T02:17:48.023Z,985.13
2018-04-27T02:18:48.222Z,985.11
2018-04-27T02:19:48.406Z,985.14
2018-04-27T02:20:48.582Z,985.16
2018-04-27T02:21:48.770Z,985.13
2018-04-27T02:22:48.973Z,985.19
2018-04-27T02:23:49.159Z,985.17
2018-04-27T02:24:49.354Z,985.17
2018-04-27T02:25:49.530Z,985.18
2018-04-27T02:28:21.624Z,985.14
2018-04-27T02:29:21.796Z,985.15
2018-04-27T02:30:21.972Z,985.11
2018-04-27T02:31:22.161Z,985.09
2018-04-27T02:32:22.368Z,985.10
2018-04-27T02:33:22.569Z,985.08
2018-04-27T02:34:22.767Z,985.10
2018-04-27T02:35:22.960Z,985.04
2018-04-27T02:36:23.138Z,985.04
2018-04-27T02:37:23.334Z,985.06
2018-04-27T02:38:23.537Z,985.03
2018-04-27T02:39:23.732Z,985.05
2018-04-27T02:40:23.957Z,985.05
2018-04-27T02:41:24.158Z,985.06
2018-04-27T02:42:24.353Z,985.06
2018-04-27T02:43:24.534Z,985.09
2018-04-27T02:44:24.712Z,985.12
2018-04-27T02:45:24.917Z,985.09
2018-04-27T02:46:25.090Z,985.15
2018-04-27T02:47:25.300Z,985.13
2018-04-27T02:48:25.483Z,985.10
2018-04-27T02:49:25.686Z,985.12
2018-04-27T02:50:25.877Z,985.09
2018-04-27T02:51:26.084Z,985.10
2018-04-27T02:52:26.263Z,985.08
2018-04-27T02:53:26.453Z,985.09
2018-04-27T02:54:26.643Z,985.07
2018-04-27T02:55:26.835Z,985.10
2018-04-27T02:56:27.040Z,985.08
2018-04-27T02:57:27.216Z,985.06
2018-04-27T02:58:27.408Z,985.04
2018-04-27T02:59:27.600Z,985.07
2018-04-27T03:00:27.785Z,985.08
2018-04-27T03:01:28.007Z,985.07
2018-04-27T03:02:28.192Z,985.06
2018-04-27T03:03:28.395Z,985.08
2018-04-27T03:04:28.582Z,985.07
2018-04-27T03:05:28.758Z,985.07
2018-04-27T03:06:28.965Z,985.08
2018-04-27T03:07:29.155Z,985.00
2018-04-27T03:08:29.345Z,985.06
2018-04-27T03:09:29.549Z,985.01
2018-04-27T03:10:29.733Z,985.03
2018-04-27T03:11:29.935Z,985.00
2018-04-27T03:12:30.120Z,984.98
2018-04-27T03:13:30.310Z,984.95
2018-04-27T03:14:30.494Z,984.92
2018-04-27T03:15:30.697Z,984.86
2018-04-27T03:16:30.879Z,984.88
2018-04-27T03:17:31.054Z,984.86
2018-04-27T03:18:31.266Z,984.85
2018-04-27T03:19:31.453Z,984.84
2018-04-27T03:20:31.658Z,984.84
2018-04-27T03:21:31.834Z,984.88
2018-04-27T03:22:32.038Z,984.88
2018-04-27T03:23:32.217Z,984.90
2018-04-27T03:24:32.417Z,984.92
2018-04-27T03:25:32.612Z,984.89
2018-04-27T03:26:32.789Z,984.89
2018-04-27T03:27:32.971Z,984.90
2018-04-27T03:28:33.173Z,984.87
2018-04-27T03:29:33.453Z,984.86
2018-04-27T03:30:33.522Z,984.90
2018-04-27T03:31:33.715Z,984.89
2018-04-27T03:32:33.899Z,984.87
2018-04-27T03:33:34.091Z,984.88
2018-04-27T03:34:34.280Z,984.87
2018-04-27T03:35:34.465Z,984.83
2018-04-27T03:36:34.680Z,984.81
2018-04-27T03:37:34.844Z,984.82
2018-04-27T03:38:35.041Z,984.83
2018-04-27T03:39:35.242Z,984.83
2018-04-27T03:40:35.449Z,984.84
2018-04-27T03:41:35.655Z,984.85
2018-04-27T03:42:35.853Z,984.84
2018-04-27T03:43:36.038Z,984.80
2018-04-27T03:44:36.234Z,984.80
2018-04-27T03:45:36.419Z,984.81
2018-04-27T03:46:36.596Z,984.78
2018-04-27T03:47:36.796Z,984.77
2018-04-27T03:48:37.004Z,984.80
2018-04-27T03:49:37.197Z,984.76
2018-04-27T03:50:37.385Z,984.81
2018-04-27T03:51:37.569Z,984.77
2018-04-27T03:52:37.760Z,984.78
2018-04-27T03:53:37.965Z,984.78
2018-04-27T03:54:38.139Z,984.75
2018-04-27T03:55:38.344Z,984.72
2018-04-27T03:56:38.535Z,984.69
2018-04-27T03:57:38.719Z,984.70
2018-04-27T03:58:38.914Z,984.69
2018-04-27T03:59:39.098Z,984.71
2018-04-27T04:00:39.294Z,984.72
2018-04-27T04:01:39.479Z,984.67
2018-04-27T04:02:39.648Z,984.69
2018-04-27T04:03:39.847Z,984.65
2018-04-27T04:04:40.053Z,984.62
2018-04-27T04:05:40.258Z,984.62
2018-04-27T04:06:40.437Z,984.59
2018-04-27T04:07:40.619Z,984.61
2018-04-27T04:08:40.825Z,984.64
2018-04-27T04:09:41.017Z,984.63
2018-04-27T04:10:41.204Z,984.64
2018-04-27T04:11:41.399Z,984.67
2018-04-27T04:12:41.580Z,984.65
2018-04-27T04:13:41.827Z,984.67
2018-04-27T04:14:41.988Z,984.72
2018-04-27T04:15:42.167Z,984.69
2018-04-27T04:16:42.356Z,984.65
2018-04-27T04:17:42.552Z,984.66
2018-04-27T04:18:42.734Z,984.65
2018-04-27T04:19:42.940Z,984.66
2018-04-27T04:20:43.116Z,984.65
2018-04-27T04:21:43.320Z,984.68
2018-04-27T04:22:43.521Z,984.66
2018-04-27T04:23:43.709Z,984.66
2018-04-27T04:24:43.899Z,984.64
2018-04-27T04:25:44.095Z,984.66
2018-04-27T04:26:44.307Z,984.65
2018-04-27T04:27:44.486Z,984.60
2018-04-27T04:28:44.687Z,984.63
2018-04-27T04:29:44.883Z,984.60
2018-04-27T04:30:45.085Z,984.63
2018-04-27T04:31:45.291Z,984.64
2018-04-27T04:32:45.551Z,984.60
2018-04-27T04:33:45.614Z,984.60
2018-04-27T04:34:45.817Z,984.60
2018-04-27T04:35:45.991Z,984.60
2018-04-27T04:36:46.195Z,984.59
2018-04-27T04:37:46.393Z,984.56
2018-04-27T04:38:46.581Z,984.58
2018-04-27T04:39:46.765Z,984.55
2018-04-27T04:40:46.967Z,984.60
2018-04-27T04:41:47.155Z,984.59
2018-04-27T04:42:47.359Z,984.60
2018-04-27T04:43:47.549Z,984.61
2018-04-27T04:44:47.727Z,984.69
2018-04-27T04:45:47.924Z,984.75
2018-04-27T04:46:48.132Z,984.78
2018-04-27T04:47:48.325Z,984.84
2018-04-27T04:48:48.504Z,984.85
2018-04-27T04:49:48.701Z,984.84
2018-04-27T04:50:48.880Z,984.94
2018-04-27T04:51:49.086Z,984.82
2018-04-27T04:52:49.275Z,984.81
2018-04-27T04:53:49.577Z,984.82
2018-04-27T04:54:49.637Z,984.91
2018-04-27T04:55:49.823Z,985.02
2018-04-27T04:56:50.029Z,985.03
2018-04-27T04:57:50.233Z,985.21
2018-04-27T04:58:50.413Z,985.39
2018-04-27T04:59:50.608Z,985.42
2018-04-27T05:00:50.794Z,985.25
2018-04-27T05:01:50.981Z,985.00
2018-04-27T05:02:51.186Z,984.79
2018-04-27T05:03:51.382Z,984.88
2018-04-27T05:04:51.569Z,984.78
2018-04-27T05:05:51.772Z,984.77
2018-04-27T05:06:51.967Z,984.88
2018-04-27T05:07:52.162Z,984.82
2018-04-27T05:08:52.372Z,984.76
2018-04-27T05:09:52.552Z,984.75
2018-04-27T05:10:52.813Z,984.77
2018-04-27T05:11:52.944Z,984.73
2018-04-27T05:12:53.137Z,984.68
2018-04-27T05:13:53.329Z,984.64
2018-04-27T05:14:53.598Z,984.64
2018-04-27T05:15:53.680Z,984.60
2018-04-27T05:16:53.876Z,984.58
2018-04-27T05:17:54.063Z,984.54
2018-04-27T05:18:54.267Z,984.52
2018-04-27T05:21:26.069Z,984.51
2018-04-27T05:22:26.245Z,984.49
2018-04-27T05:23:26.452Z,984.49
2018-04-27T05:24:26.654Z,984.48
2018-04-27T05:25:26.838Z,984.43
2018-04-27T05:26:27.022Z,984.47
2018-04-27T05:27:27.237Z,984.48
2018-04-27T05:28:27.424Z,984.51
2018-04-27T05:29:27.615Z,984.50
2018-04-27T05:30:27.848Z,984.52
2018-04-27T05:31:28.044Z,984.52
2018-04-27T05:32:28.111Z,984.54
2018-04-27T05:33:28.291Z,984.51
2018-04-27T05:34:28.481Z,984.51
2018-04-27T05:35:28.664Z,984.54
2018-04-27T05:36:28.845Z,984.54
2018-04-27T05:37:29.049Z,984.62
2018-04-27T05:38:29.240Z,984.81
2018-04-27T05:39:29.428Z,985.36
2018-04-27T05:40:29.682Z,985.61
2018-04-27T05:41:29.742Z,987.67
2018-04-27T05:42:29.948Z,987.42
2018-04-27T05:43:30.126Z,987.37
2018-04-27T05:44:30.310Z,987.24
2018-04-27T05:47:03.648Z,987.21
2018-04-27T05:48:02.312Z,987.35
2018-04-27T05:49:02.521Z,987.59
2018-04-27T05:50:02.701Z,987.35
2018-04-27T05:51:02.904Z,987.90
2018-04-27T05:52:03.102Z,987.34
2018-04-27T05:53:03.283Z,987.70
2018-04-27T05:54:03.472Z,986.34
2018-04-27T05:55:03.664Z,987.17
2018-04-27T05:56:03.859Z,987.61
2018-04-27T05:57:04.069Z,987.34
2018-04-27T05:58:04.271Z,986.46
2018-04-27T05:59:04.476Z,985.82
2018-04-27T06:00:04.669Z,986.70
2018-04-27T06:01:04.856Z,987.07
2018-04-27T06:02:05.042Z,987.05
2018-04-27T06:03:05.249Z,986.95
2018-04-27T06:04:05.448Z,986.43
2018-04-27T06:05:05.642Z,986.79
2018-04-27T06:06:05.840Z,986.73
2018-04-27T06:07:06.052Z,986.58
2018-04-27T06:08:06.264Z,986.52
2018-04-27T06:09:06.477Z,986.37
2018-04-27T06:10:06.722Z,986.17
2018-04-27T06:11:06.886Z,986.26
2018-04-27T06:12:07.097Z,986.43
2018-04-27T06:13:07.296Z,986.33
2018-04-27T06:14:07.600Z,986.00
2018-04-27T06:15:07.718Z,985.68
2018-04-27T06:16:07.955Z,985.47
2018-04-27T06:17:08.103Z,985.30
2018-04-27T06:18:08.302Z,985.11
2018-04-27T06:19:08.521Z,985.02
2018-04-27T06:20:08.723Z,984.98
2018-04-27T06:21:08.937Z,985.05
2018-04-27T06:22:09.144Z,985.01
2018-04-27T06:23:09.360Z,984.99
2018-04-27T06:24:09.564Z,984.92
2018-04-27T06:25:09.767Z,984.94
2018-04-27T06:26:09.964Z,984.87
2018-04-27T06:27:10.174Z,984.89
2018-04-27T06:28:10.390Z,984.88
2018-04-27T06:29:10.587Z,984.96
2018-04-27T06:30:10.776Z,984.93
2018-04-27T06:31:10.985Z,985.01
2018-04-27T06:32:11.194Z,985.03
2018-04-27T06:33:11.399Z,985.11
2018-04-27T06:34:11.590Z,985.35
2018-04-27T06:35:11.795Z,985.44
2018-04-27T06:36:11.999Z,985.48
2018-04-27T06:37:12.184Z,985.40
2018-04-27T06:38:12.388Z,985.40
2018-04-27T06:39:12.583Z,985.51
2018-04-27T06:40:12.771Z,985.89
2018-04-27T06:41:12.986Z,986.02
2018-04-27T06:42:13.182Z,985.72
2018-04-27T06:43:13.383Z,985.46
2018-04-27T06:44:13.580Z,985.56
2018-04-27T06:45:13.765Z,985.34
2018-04-27T06:46:13.986Z,985.74
2018-04-27T06:47:14.173Z,985.67
2018-04-27T06:48:14.365Z,985.60
2018-04-27T06:49:14.552Z,985.83
2018-04-27T06:50:14.764Z,985.82
2018-04-27T06:51:14.975Z,985.69
2018-04-27T06:52:15.165Z,985.51
2018-04-27T06:53:15.380Z,985.33
2018-04-27T06:54:15.590Z,985.39
2018-04-27T06:55:15.792Z,985.72
2018-04-27T06:56:16.006Z,985.86
2018-04-27T06:57:16.215Z,985.55
2018-04-27T06:58:16.401Z,985.99
2018-04-27T06:59:16.674Z,986.04
2018-04-27T07:00:16.801Z,985.63
2018-04-27T07:01:16.988Z,985.36
2018-04-27T07:02:17.198Z,985.41
2018-04-27T07:03:17.401Z,985.38
2018-04-27T07:04:17.597Z,985.08
2018-04-27T07:05:17.850Z,985.39
2018-04-27T07:06:18.011Z,985.22
2018-04-27T07:07:18.211Z,985.22
2018-04-27T07:08:18.407Z,985.54
2018-04-27T07:09:18.620Z,985.38
2018-04-27T07:10:18.835Z,985.55
2018-04-27T07:11:19.055Z,985.36
2018-04-27T07:12:19.259Z,985.22
2018-04-27T07:13:19.465Z,985.23
2018-04-27T07:14:19.675Z,985.33
2018-04-27T07:15:19.861Z,985.42
2018-04-27T07:16:20.052Z,985.40
2018-04-27T07:17:20.271Z,985.31
2018-04-27T07:18:20.468Z,985.34
2018-04-27T07:19:20.674Z,985.36
2018-04-27T07:20:20.869Z,985.59
2018-04-27T07:21:21.084Z,985.66
2018-04-27T07:22:21.305Z,985.54
2018-04-27T07:23:21.591Z,985.35
2018-04-27T07:24:21.679Z,985.33
2018-04-27T07:25:21.905Z,985.45
2018-04-27T07:26:22.123Z,985.19
2018-04-27T07:27:22.313Z,985.18
2018-04-27T07:28:22.502Z,985.30
2018-04-27T07:29:22.691Z,985.30
2018-04-27T07:30:22.906Z,985.12
2018-04-27T07:31:23.112Z,985.23
2018-04-27T07:32:23.331Z,985.22
2018-04-27T07:33:23.530Z,985.17
2018-04-27T07:34:23.712Z,985.16
2018-04-27T07:35:23.921Z,985.30
2018-04-27T07:36:24.137Z,985.29
2018-04-27T07:37:24.346Z,985.20
2018-04-27T07:38:24.545Z,985.13
2018-04-27T07:39:24.756Z,984.98
2018-04-27T07:40:24.964Z,985.07
2018-04-27T07:41:25.178Z,985.10
2018-04-27T07:42:25.383Z,985.13
2018-04-27T07:43:25.576Z,985.26
2018-04-27T07:45:57.688Z,985.27
2018-04-27T07:46:57.870Z,985.13
2018-04-27T07:47:58.075Z,985.00
2018-04-27T07:48:58.264Z,984.90
2018-04-27T07:49:58.465Z,984.76
2018-04-27T07:50:58.658Z,984.74
2018-04-27T07:51:58.861Z,984.82
2018-04-27T07:52:59.094Z,984.88
2018-04-27T07:53:59.293Z,984.82
2018-04-27T07:54:59.545Z,984.85
2018-04-27T07:55:59.742Z,984.88
2018-04-27T07:56:59.959Z,985.03
2018-04-27T07:58:00.161Z,985.04
2018-04-27T07:59:00.362Z,984.91
2018-04-27T08:00:00.567Z,984.88
2018-04-27T08:01:00.764Z,984.86
2018-04-27T08:02:00.985Z,984.91
2018-04-27T08:03:01.280Z,984.83
2018-04-27T08:04:01.364Z,984.74
2018-04-27T08:05:01.581Z,984.82
2018-04-27T08:06:01.838Z,984.79
2018-04-27T08:07:02.042Z,984.88
2018-04-27T08:08:02.269Z,984.93
2018-04-27T08:09:02.487Z,984.92
2018-04-27T08:10:02.691Z,984.78
2018-04-27T08:11:02.887Z,984.82
2018-04-27T08:12:03.080Z,984.86
2018-04-27T08:13:03.281Z,984.83
2018-04-27T08:14:03.472Z,984.74
2018-04-27T08:15:03.675Z,984.73
2018-04-27T08:16:03.881Z,984.66
2018-04-27T08:17:04.088Z,984.75
2018-04-27T08:18:04.294Z,984.71
2018-04-27T08:19:04.513Z,984.73
2018-04-27T08:20:04.707Z,984.84
2018-04-27T08:21:04.912Z,984.75
2018-04-27T08:22:05.106Z,984.70
2018-04-27T08:23:05.298Z,984.65
2018-04-27T08:24:05.501Z,984.76
2018-04-27T08:25:05.709Z,984.62
2018-04-27T08:26:05.926Z,984.59
2018-04-27T08:27:06.115Z,984.69
2018-04-27T08:28:06.327Z,984.66
2018-04-27T08:29:06.520Z,984.69
2018-04-27T08:30:06.741Z,984.50
2018-04-27T08:31:06.958Z,984.53
2018-04-27T08:32:07.180Z,984.47
2018-04-27T08:33:07.379Z,984.49
2018-04-27T08:34:07.603Z,984.49
2018-04-27T08:35:07.801Z,984.36
2018-04-27T08:36:08.027Z,984.34
2018-04-27T08:37:08.209Z,984.33
2018-04-27T08:38:08.419Z,984.38
2018-04-27T08:39:08.623Z,984.34
2018-04-27T08:40:08.836Z,984.32
2018-04-27T08:41:09.041Z,984.32
2018-04-27T08:42:09.267Z,984.32
2018-04-27T08:43:09.484Z,984.24
2018-04-27T08:44:09.672Z,984.20
2018-04-27T08:45:09.880Z,984.17
2018-04-27T08:46:10.079Z,984.21
2018-04-27T08:47:10.281Z,984.24
2018-04-27T08:48:10.479Z,984.18
2018-04-27T08:49:10.692Z,984.20
2018-04-27T08:50:10.908Z,984.12
2018-04-27T08:51:11.131Z,984.12
2018-04-27T08:52:11.332Z,984.03
2018-04-27T08:53:11.537Z,984.01
2018-04-27T08:54:11.742Z,984.07
2018-04-27T08:55:11.961Z,984.01
2018-04-27T08:56:12.242Z,984.06
2018-04-27T08:57:12.395Z,984.05
2018-04-27T08:58:12.595Z,984.02
2018-04-27T08:59:12.805Z,984.08
2018-04-27T09:00:13.005Z,984.10
2018-04-27T09:01:13.221Z,984.09
2018-04-27T09:02:13.411Z,984.17
2018-04-27T09:03:13.605Z,984.16
2018-04-27T09:04:13.837Z,984.04
2018-04-27T09:05:14.034Z,983.71
2018-04-27T09:06:14.252Z,983.82
2018-04-27T09:07:14.458Z,984.10
2018-04-27T09:08:14.656Z,984.05
2018-04-27T09:09:14.861Z,983.96
2018-04-27T09:10:15.070Z,983.89
2018-04-27T09:11:15.287Z,983.80
2018-04-27T09:12:15.471Z,983.86
2018-04-27T09:13:15.675Z,983.82
2018-04-27T09:14:15.892Z,983.84
2018-04-27T09:15:16.105Z,983.82
2018-04-27T09:16:16.318Z,983.74
2018-04-27T09:17:16.509Z,983.76
2018-04-27T09:18:16.727Z,983.74
2018-04-27T09:19:16.922Z,983.68
2018-04-27T09:20:17.110Z,983.56
2018-04-27T09:21:17.323Z,983.37
2018-04-27T09:22:17.548Z,983.36
2018-04-27T09:23:17.773Z,983.36
2018-04-27T09:24:17.987Z,983.48
2018-04-27T09:25:18.206Z,983.53
2018-04-27T09:26:18.405Z,983.34
2018-04-27T09:27:18.611Z,983.31
2018-04-27T09:28:18.804Z,983.34
2018-04-27T09:29:19.016Z,983.55
2018-04-27T09:30:19.213Z,983.52
2018-04-27T09:31:19.457Z,983.29
2018-04-27T09:32:19.674Z,983.47
2018-04-27T09:33:19.842Z,983.59
2018-04-27T09:34:20.051Z,983.53
2018-04-27T09:35:20.267Z,983.52
2018-04-27T09:36:20.467Z,983.36
2018-04-27T09:37:20.651Z,983.26
2018-04-27T09:38:20.867Z,983.33
2018-04-27T09:39:21.084Z,983.39
2018-04-27T09:40:21.278Z,983.38
2018-04-27T09:41:21.493Z,983.35
2018-04-27T09:42:21.706Z,983.23
2018-04-27T09:43:21.927Z,983.04
2018-04-27T09:44:22.113Z,983.06
2018-04-27T09:45:22.352Z,983.07
2018-04-27T09:46:22.551Z,983.01
2018-04-27T09:47:22.774Z,982.95
2018-04-27T09:48:22.968Z,982.92
2018-04-27T09:49:23.175Z,982.92
2018-04-27T09:50:23.383Z,982.88
2018-04-27T09:51:23.588Z,982.89
2018-04-27T09:52:23.805Z,982.82
2018-04-27T09:53:24.009Z,982.84
2018-04-27T09:54:24.200Z,982.79
2018-04-27T09:55:24.405Z,982.79
2018-04-27T09:56:24.618Z,982.77
2018-04-27T09:57:24.832Z,982.76
2018-04-27T09:58:25.084Z,982.78
2018-04-27T09:59:25.304Z,982.75
2018-04-27T10:00:25.508Z,982.69
2018-04-27T10:02:57.698Z,982.59
2018-04-27T10:03:57.875Z,982.59
2018-04-27T10:04:58.090Z,982.54
2018-04-27T10:05:58.313Z,982.49
2018-04-27T10:06:58.508Z,982.52
2018-04-27T10:07:58.700Z,982.60
2018-04-27T10:08:58.905Z,982.61
2018-04-27T10:09:59.121Z,982.88
2018-04-27T10:10:59.331Z,982.55
2018-04-27T10:11:59.552Z,982.50
2018-04-27T10:12:59.764Z,982.48
2018-04-27T10:13:59.973Z,982.47
2018-04-27T10:15:00.188Z,982.43
2018-04-27T10:16:00.362Z,982.41
2018-04-27T10:17:00.564Z,982.40
2018-04-27T10:19:32.396Z,982.63
2018-04-27T10:20:32.594Z,982.30
2018-04-27T10:21:32.769Z,982.29
2018-04-27T10:22:32.957Z,982.25
2018-04-27T10:23:33.142Z,982.47
2018-04-27T10:24:33.436Z,982.28
2018-04-27T10:25:33.513Z,982.22
2018-04-27T10:26:33.692Z,982.27
2018-04-27T10:27:33.906Z,982.41
2018-04-27T10:28:34.095Z,982.43
2018-04-27T10:29:34.296Z,982.40
2018-04-27T10:30:34.501Z,982.20
2018-04-27T10:31:34.693Z,982.07
2018-04-27T10:32:34.879Z,982.16
2018-04-27T10:33:35.095Z,982.11
2018-04-27T10:34:35.293Z,982.36
2018-04-27T10:37:07.480Z,982.15
2018-04-27T10:38:07.531Z,982.16
2018-04-27T10:39:07.727Z,982.14
2018-04-27T10:40:07.917Z,982.14
2018-04-27T10:41:08.116Z,982.29
2018-04-27T10:42:08.309Z,982.34
2018-04-27T10:43:08.552Z,982.32
2018-04-27T10:44:08.733Z,982.34
2018-04-27T10:45:08.967Z,982.10
2018-04-27T10:46:09.152Z,982.24
2018-04-27T10:47:09.349Z,982.33
2018-04-27T10:48:09.560Z,982.36
2018-04-27T10:49:09.771Z,982.38
2018-04-27T10:50:10.039Z,982.27
2018-04-27T10:51:10.213Z,982.26
2018-04-27T10:52:10.428Z,982.31
2018-04-27T10:53:10.636Z,982.30
2018-04-27T10:54:10.836Z,982.23
2018-04-27T10:55:11.041Z,982.19
2018-04-27T10:56:11.254Z,982.19
2018-04-27T10:57:11.455Z,982.17
2018-04-27T10:58:11.657Z,982.21
2018-04-27T10:59:11.938Z,982.14
2018-04-27T11:00:12.027Z,982.12
2018-04-27T11:01:12.222Z,982.15
2018-04-27T11:02:12.413Z,982.10
2018-04-27T11:03:12.629Z,982.13
2018-04-27T11:04:12.839Z,982.06
2018-04-27T11:05:13.037Z,982.02
2018-04-27T11:06:13.251Z,982.02
2018-04-27T11:07:13.463Z,981.94
2018-04-27T11:08:13.664Z,981.74
2018-04-27T11:09:13.871Z,981.69
2018-04-27T11:10:14.065Z,981.58
2018-04-27T11:11:14.254Z,981.69
2018-04-27T11:12:14.472Z,981.59
2018-04-27T11:13:14.690Z,981.60
2018-04-27T11:14:14.913Z,981.63
2018-04-27T11:15:15.121Z,981.69
2018-04-27T11:16:15.445Z,981.51
2018-04-27T11:17:15.540Z,981.46
2018-04-27T11:18:15.760Z,981.43
2018-04-27T11:19:15.959Z,981.38
2018-04-27T11:20:16.202Z,981.40
2018-04-27T11:21:16.396Z,981.41
2018-04-27T11:22:16.594Z,981.35
2018-04-27T11:23:16.787Z,981.35
2018-04-27T11:24:16.985Z,981.37
2018-04-27T11:25:17.204Z,981.33
2018-04-27T11:26:17.397Z,981.25
2018-04-27T11:27:17.593Z,981.24
2018-04-27T11:28:17.818Z,981.19
2018-04-27T11:29:18.005Z,981.20
2018-04-27T11:30:18.214Z,981.18
2018-04-27T11:31:18.412Z,981.11
2018-04-27T11:32:18.617Z,981.11
2018-04-27T11:33:18.805Z,981.11
2018-04-27T11:34:19.005Z,981.04
2018-04-27T11:35:19.199Z,980.98
2018-04-27T11:36:19.421Z,981.03
2018-04-27T11:37:19.633Z,981.02
2018-04-27T11:38:19.824Z,981.05
2018-04-27T11:39:20.016Z,981.04
2018-04-27T11:40:20.221Z,981.02
2018-04-27T11:41:20.583Z,980.98
2018-04-27T11:42:20.596Z,981.00
2018-04-27T11:43:20.810Z,980.97
2018-04-27T11:44:21.026Z,980.96
2018-04-27T11:45:21.221Z,981.00
2018-04-27T11:46:21.418Z,981.01
2018-04-27T11:47:21.615Z,980.99
2018-04-27T11:48:21.829Z,980.94
2018-04-27T11:49:22.029Z,980.91
2018-04-27T11:50:22.233Z,980.92
2018-04-27T11:51:22.448Z,980.90
2018-04-27T11:52:22.663Z,980.83
2018-04-27T11:53:22.878Z,980.81
2018-04-27T11:54:23.074Z,980.71
2018-04-27T11:55:23.291Z,980.79
2018-04-27T11:56:23.484Z,980.78
2018-04-27T11:57:23.681Z,980.76
2018-04-27T11:58:23.906Z,980.76
2018-04-27T11:59:24.185Z,980.76
2018-04-27T12:00:24.336Z,980.76
2018-04-27T12:01:24.534Z,980.72
2018-04-27T12:02:24.757Z,980.74
2018-04-27T12:03:24.945Z,980.65
2018-04-27T12:04:25.154Z,980.60
2018-04-27T12:05:25.358Z,980.63
2018-04-27T12:06:25.564Z,980.62
2018-04-27T12:07:25.755Z,980.63
2018-04-27T12:08:25.951Z,980.64
2018-04-27T12:09:26.166Z,980.63
2018-04-27T12:10:26.382Z,980.60
2018-04-27T12:11:26.595Z,980.63
2018-04-27T12:12:26.810Z,980.68
2018-04-27T12:13:27.005Z,980.68
2018-04-27T12:14:27.210Z,980.63
2018-04-27T12:15:27.404Z,980.61
2018-04-27T12:16:27.599Z,980.52
2018-04-27T12:17:27.793Z,980.56
2018-04-27T12:18:28.004Z,980.55
2018-04-27T12:19:28.204Z,980.51
2018-04-27T12:20:28.417Z,980.49
2018-04-27T12:21:28.611Z,980.51
2018-04-27T12:22:28.827Z,980.53
2018-04-27T12:23:29.030Z,980.50
2018-04-27T12:24:29.261Z,980.48
2018-04-27T12:25:29.447Z,980.45
2018-04-27T12:26:29.650Z,980.45
2018-04-27T12:27:29.862Z,980.40
2018-04-27T12:28:30.063Z,980.32
2018-04-27T12:29:30.266Z,980.34
2018-04-27T12:30:30.493Z,980.35
2018-04-27T12:31:30.773Z,980.34
2018-04-27T12:32:30.885Z,980.33
2018-04-27T12:33:31.100Z,980.35
2018-04-27T12:34:31.284Z,980.37
2018-04-27T12:35:31.610Z,980.41
2018-04-27T12:36:31.698Z,980.48
2018-04-27T12:37:31.902Z,980.47
2018-04-27T12:38:32.093Z,980.49
2018-04-27T12:39:32.284Z,980.49
2018-04-27T12:40:32.490Z,980.50
2018-04-27T12:41:32.676Z,980.47
2018-04-27T12:42:32.885Z,980.58
2018-04-27T12:43:33.077Z,980.61
2018-04-27T12:44:33.271Z,980.60
2018-04-27T12:45:33.459Z,980.57
2018-04-27T12:46:33.673Z,980.52
2018-04-27T12:47:33.862Z,980.39
2018-04-27T12:48:34.078Z,980.50
2018-04-27T12:49:34.275Z,980.52